»·PEaware :: N232JW KSBA-KSMX

N232JW :: KSBA-KSMX

FLIGHT INFORMATION

Flight Status: Arrived
Operator: Privately registered:
United States
More flights under this callsign
Pilot: Ron C. (6371)
Aircraft: PIPER PA-28 CHEROKEE ARCHER
(PA28)
More flights by this aircraft type
Origin: KSBA Santa Barbara Mun
United States
Destination: KSMX Santa Maria Pub/Capt Hancock
United States
More flights between these airports :: More routes between these airports
Route: +FLOUT5 RZS
File this flight plan on PilotEdge
Remarks: LOC / DME BC-A APPROACH PLEASE
Altitude:
(Current/Filed)
6,000ft
Speed:
(Current/Filed)
115kts
Departed: 13-Jun-17 09:09 PM
Arrived: 13-Jun-17 09:51 PM
Distance/Time
Traveled:
41nm/0:42
Distance/Time
To Go:
Arrived

Flight Plot

Page will automatically refresh every two minutes.


Map Options




Map Legend


Flown Route
Filed Route
Departure Airport
Arrival Airport
Navaid (VOR, NDB)
Fix

Horizontal Profiles

Position Reports

Time Latitude Longitude Heading Altitude Ground
Speed
13-Jun-17 20:55 34.422658 -119.835594 340 8ft 0kts
13-Jun-17 20:56 34.422658 -119.835594 340 8ft 0kts
13-Jun-17 20:57 34.422658 -119.835594 340 8ft 0kts
13-Jun-17 20:58 34.422658 -119.835594 340 8ft 0kts
13-Jun-17 20:59 34.422658 -119.835594 340 8ft 0kts
13-Jun-17 21:00 34.422658 -119.835594 340 8ft 0kts
13-Jun-17 21:01 34.422658 -119.835594 340 8ft 0kts
13-Jun-17 21:02 34.422658 -119.835594 340 8ft 0kts
13-Jun-17 21:03 34.422658 -119.835594 340 8ft 0kts
13-Jun-17 21:04 34.422658 -119.835594 340 8ft 0kts
13-Jun-17 21:05 34.422742 -119.835837 278 8ft 3kts
13-Jun-17 21:06 34.423018 -119.837304 349 10ft 6kts
13-Jun-17 21:07 34.426564 -119.838290 342 9ft 21kts
13-Jun-17 21:08 34.430589 -119.839636 288 12ft 0kts
13-Jun-17 21:09 34.430589 -119.839636 288 12ft 0kts
13-Jun-17 21:10 34.430610 -119.839876 258 12ft 6kts
13-Jun-17 21:11 34.417237 -119.836907 172 307ft 81kts
13-Jun-17 21:12 34.396785 -119.845068 249 1065ft 91kts
13-Jun-17 21:13 34.382141 -119.872835 219 1782ft 101kts
13-Jun-17 21:14 34.362864 -119.884539 205 2455ft 95kts
13-Jun-17 21:15 34.339332 -119.898874 208 3222ft 95kts
13-Jun-17 21:16 34.316320 -119.914026 209 3948ft 94kts
13-Jun-17 21:17 34.293468 -119.929714 210 4659ft 95kts
13-Jun-17 21:18 34.270634 -119.945755 210 5360ft 94kts
13-Jun-17 21:19 34.249746 -119.943847 97 5965ft 93kts
13-Jun-17 21:20 34.270263 -119.928069 33 6164ft 101kts
13-Jun-17 21:21 34.295954 -119.911600 22 6118ft 110kts
13-Jun-17 21:22 34.323756 -119.899125 20 6161ft 105kts
13-Jun-17 21:23 34.352407 -119.883432 24 5995ft 112kts
13-Jun-17 21:24 34.379496 -119.866378 34 5973ft 110kts
13-Jun-17 21:25 34.405604 -119.847859 36 6029ft 110kts
13-Jun-17 21:26 34.431279 -119.829371 25 6054ft 107kts
13-Jun-17 21:27 34.456603 -119.810037 25 6056ft 106kts
13-Jun-17 21:28 34.482801 -119.793128 41 6035ft 107kts
13-Jun-17 21:29 34.508510 -119.778687 335 6086ft 99kts
13-Jun-17 21:30 34.525568 -119.806032 306 5886ft 104kts
13-Jun-17 21:31 34.542915 -119.834345 289 5388ft 106kts
13-Jun-17 21:32 34.554793 -119.866838 295 4936ft 105kts
13-Jun-17 21:33 34.570038 -119.898094 299 5234ft 107kts
13-Jun-17 21:34 34.585129 -119.929478 299 5748ft 108kts
13-Jun-17 21:35 34.600869 -119.960133 301 6012ft 107kts
13-Jun-17 21:36 34.615832 -119.991523 301 6072ft 107kts
13-Jun-17 21:37 34.631152 -120.022839 299 6074ft 107kts
13-Jun-17 21:38 34.645578 -120.054172 300 5749ft 105kts
13-Jun-17 21:39 34.660025 -120.085457 300 5285ft 105kts
13-Jun-17 21:40 34.674678 -120.116227 299 4843ft 105kts
13-Jun-17 21:41 34.688347 -120.144972 305 4642ft 86kts
13-Jun-17 21:42 34.700991 -120.168942 302 4740ft 90kts
13-Jun-17 21:43 34.717376 -120.201199 306 4698ft 118kts
13-Jun-17 21:44 34.735247 -120.237263 304 4544ft 133kts
13-Jun-17 21:45 34.752143 -120.275085 303 4735ft 122kts
13-Jun-17 21:46 34.769966 -120.310192 298 4412ft 123kts
13-Jun-17 21:47 34.791457 -120.340027 327 3395ft 122kts
13-Jun-17 21:48 34.818483 -120.358917 326 2997ft 108kts
13-Jun-17 21:49 34.839928 -120.382675 320 2476ft 98kts
13-Jun-17 21:50 34.858604 -120.405135 318 1838ft 76kts
13-Jun-17 21:51 34.873637 -120.423306 315 1312ft 73kts
13-Jun-17 21:52 34.888240 -120.440384 315 560ft 72kts
13-Jun-17 21:53 34.897722 -120.450020 2 263ft 0kts

Navigation Log

Ident Type
1. KSBA Airport
2. FLOUT Fix
3. RZS Navaid
4. KSMX Airport